Terminal Aerodrome Forecast
Issued by NWS Quad Cities IA IL

Home | Current Version | Previous Version | Text Only | Print | Product List | Glossary On
Versions: 1 2 3 4 5 6 7 8 9 10 11 12
000
FTUS43 KDVN 111100
TAFMLI
TAF
KMLI 111128Z 1112/1212 17008KT P6SM BKN120 BKN200
     FM112100 16009KT P6SM VCTS SCT050CB BKN150
     FM120400 15005KT 6SM -RA BR VCTS BKN050CB=

USA.gov is the U.S. government's official web portal to all federal, state and local government web resources and services.